createdAt,value
2023-04-18T00:01:30.401Z,6.65
2023-04-18T00:03:57.058Z,7.60
2023-04-18T00:06:23.724Z,7.40
2023-04-18T00:08:51.630Z,6.82
2023-04-18T00:11:18.505Z,7.65
2023-04-18T00:13:45.072Z,6.93
2023-04-18T00:16:11.718Z,7.78
2023-04-18T00:18:38.317Z,7.68
2023-04-18T00:21:05.236Z,7.97
2023-04-18T00:23:31.832Z,7.47
2023-04-18T00:26:00.229Z,7.57
2023-04-18T00:28:27.395Z,8.32
2023-04-18T00:30:54.992Z,7.28
2023-04-18T00:33:21.614Z,7.50
2023-04-18T00:35:51.994Z,7.95
2023-04-18T00:38:18.626Z,7.70
2023-04-18T00:40:47.847Z,7.45
2023-04-18T00:43:16.172Z,8.23
2023-04-18T00:45:42.805Z,7.22
2023-04-18T00:48:10.976Z,9.20
2023-04-18T00:50:37.865Z,8.00
2023-04-18T00:53:04.728Z,8.13
2023-04-18T00:55:31.535Z,7.93
2023-04-18T00:57:58.528Z,8.48
2023-04-18T01:00:26.910Z,8.38
2023-04-18T01:02:53.724Z,8.15
2023-04-18T01:05:21.308Z,10.43
2023-04-18T01:07:49.048Z,7.68
2023-04-18T01:10:15.797Z,8.27
2023-04-18T01:12:42.507Z,7.97
2023-04-18T01:15:09.562Z,8.23
2023-04-18T01:17:38.159Z,8.07
2023-04-18T01:20:05.671Z,8.35
2023-04-18T01:22:33.364Z,7.85
2023-04-18T01:25:06.850Z,8.20
2023-04-18T01:27:33.501Z,8.32
2023-04-18T01:30:00.200Z,8.65
2023-04-18T01:32:29.773Z,7.93
2023-04-18T01:34:56.321Z,7.68
2023-04-18T01:37:22.860Z,8.45
2023-04-18T01:39:49.431Z,8.45
2023-04-18T01:42:20.019Z,7.78
2023-04-18T01:44:46.617Z,8.20
2023-04-18T01:47:13.168Z,9.10
2023-04-18T01:49:39.886Z,8.38
2023-04-18T01:52:06.581Z,7.70
2023-04-18T01:54:33.216Z,7.68
2023-04-18T01:56:59.729Z,7.72
2023-04-18T01:59:27.717Z,8.45
2023-04-18T02:01:54.767Z,8.13
2023-04-18T02:04:21.557Z,8.18
2023-04-18T02:06:48.154Z,8.82
2023-04-18T02:09:14.819Z,8.07
2023-04-18T02:11:42.873Z,8.98
2023-04-18T02:14:09.493Z,8.32
2023-04-18T02:16:37.631Z,8.75
2023-04-18T02:19:04.309Z,8.40
2023-04-18T02:21:30.810Z,8.27
2023-04-18T02:23:57.730Z,8.10
2023-04-18T02:26:24.286Z,9.35
2023-04-18T02:28:50.926Z,9.18
2023-04-18T02:31:17.490Z,8.77
2023-04-18T02:33:46.613Z,8.73
2023-04-18T02:36:13.916Z,9.20
2023-04-18T02:38:42.303Z,9.77
2023-04-18T02:41:08.843Z,10.98
2023-04-18T02:43:35.371Z,8.80
2023-04-18T02:46:03.022Z,8.18
2023-04-18T02:48:29.682Z,9.35
2023-04-18T02:51:02.813Z,9.65
2023-04-18T02:53:30.785Z,8.80
2023-04-18T02:55:57.708Z,9.65
2023-04-18T02:58:32.304Z,9.20
2023-04-18T03:01:13.437Z,8.87
2023-04-18T03:04:02.902Z,9.60
2023-04-18T03:06:38.969Z,8.98
2023-04-18T03:09:06.716Z,8.40
2023-04-18T03:11:36.752Z,9.43
2023-04-18T03:14:04.370Z,8.60
2023-04-18T03:16:40.588Z,7.97
2023-04-18T03:19:10.376Z,8.02
2023-04-18T03:21:36.959Z,8.20
2023-04-18T03:24:05.884Z,8.43
2023-04-18T03:26:34.476Z,8.15
2023-04-18T03:29:01.442Z,8.10
2023-04-18T03:31:28.135Z,8.52
2023-04-18T03:33:54.982Z,8.20
2023-04-18T03:36:21.535Z,8.45
2023-04-18T03:38:48.136Z,9.48
2023-04-18T03:41:16.168Z,8.98
2023-04-18T03:43:42.813Z,7.60
2023-04-18T03:46:09.579Z,8.18
2023-04-18T03:48:37.117Z,8.07
2023-04-18T03:51:08.001Z,8.32
2023-04-18T03:53:35.724Z,8.48
2023-04-18T03:56:02.297Z,8.50
2023-04-18T03:58:51.565Z,8.60
2023-04-18T04:01:20.023Z,9.10
2023-04-18T04:03:46.773Z,9.20
2023-04-18T04:06:14.165Z,7.82
2023-04-18T04:08:40.703Z,8.38
2023-04-18T04:11:07.826Z,8.73
2023-04-18T04:13:34.334Z,9.48
2023-04-18T04:16:02.623Z,8.27
2023-04-18T04:18:29.298Z,8.80
2023-04-18T04:20:57.646Z,7.45
2023-04-18T04:23:41.801Z,8.00
2023-04-18T04:26:09.968Z,8.40
2023-04-18T04:28:43.983Z,8.80
2023-04-18T04:31:12.652Z,7.95
2023-04-18T04:33:40.560Z,9.02
2023-04-18T04:36:16.677Z,8.38
2023-04-18T04:38:46.723Z,7.32
2023-04-18T04:41:13.421Z,9.18
2023-04-18T04:43:40.087Z,8.20
2023-04-18T04:46:17.983Z,8.15
2023-04-18T04:48:44.991Z,9.27
2023-04-18T04:51:11.677Z,7.85
2023-04-18T04:53:38.332Z,8.40
2023-04-18T04:56:06.911Z,8.85
2023-04-18T04:58:34.125Z,8.15
2023-04-18T05:01:14.788Z,8.90
2023-04-18T05:03:43.308Z,9.05
2023-04-18T05:06:10.169Z,8.23
2023-04-18T05:08:36.876Z,8.68
2023-04-18T05:11:03.538Z,7.97
2023-04-18T05:13:30.128Z,8.73
2023-04-18T05:15:56.807Z,11.40
2023-04-18T05:18:23.381Z,7.97
2023-04-18T05:20:51.532Z,8.02
2023-04-18T05:23:18.130Z,8.88
2023-04-18T05:25:44.758Z,8.18
2023-04-18T05:28:11.302Z,8.38
2023-04-18T05:30:38.001Z,8.55
2023-04-18T05:33:04.639Z,9.02
2023-04-18T05:35:31.503Z,8.90
2023-04-18T05:37:59.715Z,9.40
2023-04-18T05:40:26.727Z,9.98
2023-04-18T05:42:53.649Z,9.93
2023-04-18T05:45:20.228Z,9.45
2023-04-18T05:47:47.235Z,9.48
2023-04-18T05:50:13.801Z,9.05
2023-04-18T05:52:40.445Z,8.65
2023-04-18T05:55:09.300Z,9.10
2023-04-18T05:57:35.916Z,9.32
2023-04-18T06:00:02.589Z,8.90
2023-04-18T06:02:39.341Z,16.83
2023-04-18T06:05:06.938Z,12.43
2023-04-18T06:07:33.673Z,11.98
2023-04-18T06:10:00.288Z,10.82
2023-04-18T06:12:28.197Z,9.88
2023-04-18T06:14:54.778Z,10.05
2023-04-18T06:17:21.672Z,9.25
2023-04-18T06:19:48.337Z,9.32
2023-04-18T06:22:14.857Z,10.18
2023-04-18T06:24:41.441Z,10.45
2023-04-18T06:27:14.947Z,10.55
2023-04-18T06:29:48.797Z,10.13
2023-04-18T06:32:15.453Z,9.82
2023-04-18T06:34:42.062Z,11.25
2023-04-18T06:37:08.637Z,9.50
2023-04-18T06:39:35.271Z,10.13
2023-04-18T06:42:01.988Z,9.77
2023-04-18T06:44:28.838Z,10.18
2023-04-18T06:46:56.852Z,9.77
2023-04-18T06:49:26.382Z,9.27
2023-04-18T06:51:53.406Z,9.98
2023-04-18T06:54:20.287Z,10.27
2023-04-18T06:56:46.982Z,9.88
2023-04-18T06:59:13.704Z,10.07
2023-04-18T07:01:41.397Z,8.82
2023-04-18T07:04:09.557Z,9.20
2023-04-18T07:06:36.286Z,9.13
2023-04-18T07:09:03.093Z,8.70
2023-04-18T07:11:29.837Z,9.38
2023-04-18T07:13:56.452Z,8.90
2023-04-18T07:16:23.156Z,8.27
2023-04-18T07:18:49.752Z,9.05
2023-04-18T07:21:18.685Z,8.65
2023-04-18T07:23:45.336Z,8.05
2023-04-18T07:26:11.901Z,9.07
2023-04-18T07:28:38.559Z,8.02
2023-04-18T07:31:05.158Z,7.85
2023-04-18T07:33:31.797Z,7.53
2023-04-18T07:35:58.398Z,7.80
2023-04-18T07:38:27.043Z,8.00
2023-04-18T07:40:57.069Z,8.35
2023-04-18T07:43:23.776Z,7.07
2023-04-18T07:45:51.258Z,7.47
2023-04-18T07:48:17.944Z,6.95
2023-04-18T07:50:44.465Z,6.90
2023-04-18T07:53:11.058Z,6.68
2023-04-18T07:55:38.943Z,6.40
2023-04-18T07:58:05.568Z,6.28
2023-04-18T08:00:32.208Z,6.72
2023-04-18T08:02:58.919Z,6.43
2023-04-18T08:05:25.667Z,6.85
2023-04-18T08:07:52.401Z,5.60
2023-04-18T08:10:18.999Z,5.60
2023-04-18T08:12:46.962Z,5.53
2023-04-18T08:15:13.753Z,5.10
2023-04-18T08:17:40.374Z,5.18
2023-04-18T08:20:07.728Z,6.07
2023-04-18T08:22:37.826Z,4.50
2023-04-18T08:25:10.873Z,5.25
2023-04-18T08:27:37.470Z,5.78
2023-04-18T08:30:07.148Z,5.30
2023-04-18T08:32:35.636Z,5.43
2023-04-18T08:35:02.304Z,4.80
2023-04-18T08:37:28.858Z,5.10
2023-04-18T08:39:55.489Z,5.05
2023-04-18T08:42:23.298Z,5.07
2023-04-18T08:44:50.036Z,5.25
2023-04-18T08:47:18.005Z,5.38
2023-04-18T08:49:44.621Z,4.90
2023-04-18T08:52:14.248Z,5.32
2023-04-18T08:54:41.449Z,4.78
2023-04-18T08:57:09.448Z,4.72
2023-04-18T08:59:36.276Z,4.80
2023-04-18T09:02:04.313Z,4.82
2023-04-18T09:04:40.601Z,4.85
2023-04-18T09:07:09.161Z,4.88
2023-04-18T09:09:43.611Z,4.70
2023-04-18T09:12:11.491Z,5.22
2023-04-18T09:14:38.282Z,4.95
2023-04-18T09:17:05.000Z,5.03
2023-04-18T09:19:31.588Z,4.72
2023-04-18T09:22:02.020Z,4.60
2023-04-18T09:24:29.186Z,4.70
2023-04-18T09:26:56.906Z,4.55
2023-04-18T09:29:42.232Z,5.28
2023-04-18T09:32:09.280Z,4.40
2023-04-18T09:34:41.771Z,4.70
2023-04-18T09:37:11.119Z,4.30
2023-04-18T09:39:38.633Z,4.53
2023-04-18T09:42:05.612Z,4.03
2023-04-18T09:44:32.163Z,4.90
2023-04-18T09:46:58.777Z,4.28
2023-04-18T09:49:25.358Z,3.95
2023-04-18T09:51:54.291Z,4.90
2023-04-18T09:54:24.094Z,3.70
2023-04-18T09:56:52.082Z,4.38
2023-04-18T09:59:32.617Z,4.65
2023-04-18T10:01:59.750Z,4.80
2023-04-18T10:04:28.068Z,4.35
2023-04-18T10:06:54.812Z,4.20
2023-04-18T10:09:23.344Z,4.47
2023-04-18T10:11:50.252Z,3.92
2023-04-18T10:14:17.434Z,4.43
2023-04-18T10:16:44.773Z,4.13
2023-04-18T10:19:22.108Z,4.57
2023-04-18T10:21:53.179Z,4.03
2023-04-18T10:24:48.731Z,4.47
2023-04-18T10:27:15.769Z,4.72
2023-04-18T10:29:50.269Z,4.22
2023-04-18T10:32:18.033Z,4.22
2023-04-18T10:34:46.139Z,4.53
2023-04-18T10:37:13.020Z,4.00
2023-04-18T10:39:58.290Z,4.18
2023-04-18T10:42:58.566Z,4.30
2023-04-18T10:45:26.388Z,4.45
2023-04-18T10:48:21.905Z,4.80
2023-04-18T10:51:12.671Z,4.72
2023-04-18T10:53:39.785Z,4.50
2023-04-18T10:56:09.756Z,5.57
2023-04-18T10:58:36.688Z,4.32
2023-04-18T11:01:04.574Z,4.40
2023-04-18T11:03:32.839Z,4.57
2023-04-18T11:06:01.726Z,4.50
2023-04-18T11:08:29.080Z,4.15
2023-04-18T11:10:58.798Z,3.83
2023-04-18T11:13:27.149Z,3.88
2023-04-18T11:15:54.099Z,4.43
2023-04-18T11:18:20.712Z,4.53
2023-04-18T11:20:48.389Z,4.45
2023-04-18T11:23:16.885Z,4.07
2023-04-18T11:25:43.401Z,4.47
2023-04-18T11:28:10.311Z,3.63
2023-04-18T11:30:39.795Z,3.83
2023-04-18T11:33:07.693Z,3.85
2023-04-18T11:35:37.635Z,3.75
2023-04-18T11:38:05.313Z,3.58
2023-04-18T11:40:31.879Z,3.92
2023-04-18T11:43:01.174Z,3.30
2023-04-18T11:45:28.215Z,3.70
2023-04-18T11:47:57.572Z,3.70
2023-04-18T11:50:25.004Z,3.08
2023-04-18T11:52:53.009Z,3.90
2023-04-18T11:55:21.660Z,3.85
2023-04-18T11:57:53.037Z,3.70
2023-04-18T12:00:29.956Z,3.35
2023-04-18T12:02:59.079Z,3.80
2023-04-18T12:05:26.489Z,4.05
2023-04-18T12:07:53.374Z,3.72
2023-04-18T12:10:25.320Z,3.60
2023-04-18T12:12:53.163Z,4.03
2023-04-18T12:15:20.569Z,3.53
2023-04-18T12:17:47.994Z,3.47
2023-04-18T12:20:15.893Z,3.42
2023-04-18T12:22:44.839Z,3.53
2023-04-18T12:25:16.529Z,3.75
2023-04-18T12:30:14.268Z,4.90
2023-04-18T12:32:40.976Z,3.92
2023-04-18T12:35:08.619Z,3.60
2023-04-18T12:37:36.523Z,3.67
2023-04-18T12:40:03.203Z,3.65
2023-04-18T12:42:29.707Z,3.30
2023-04-18T12:44:56.216Z,4.10
2023-04-18T12:47:22.783Z,4.30
2023-04-18T12:49:49.345Z,4.10
2023-04-18T12:52:15.871Z,3.67
2023-04-18T12:54:43.809Z,4.43
2023-04-18T12:57:10.316Z,4.05
2023-04-18T12:59:36.819Z,5.10
2023-04-18T13:02:03.517Z,4.50
2023-04-18T13:04:30.258Z,4.07
2023-04-18T13:06:57.232Z,4.05
2023-04-18T13:09:23.854Z,4.70
2023-04-18T13:11:51.725Z,5.00
2023-04-18T13:14:18.581Z,4.43
2023-04-18T13:16:45.205Z,4.35
2023-04-18T13:19:11.887Z,5.28
2023-04-18T13:21:38.548Z,4.68
2023-04-18T13:24:05.597Z,4.53
2023-04-18T13:26:32.190Z,5.13
2023-04-18T13:29:00.072Z,4.82
2023-04-18T13:31:26.645Z,4.60
2023-04-18T13:33:53.169Z,5.00
2023-04-18T13:36:20.120Z,4.93
2023-04-18T13:38:47.369Z,5.03
2023-04-18T13:41:13.950Z,4.63
2023-04-18T13:43:40.505Z,5.10
2023-04-18T13:46:08.646Z,4.40
2023-04-18T13:48:35.317Z,4.40
2023-04-18T13:51:02.198Z,4.78
2023-04-18T13:53:30.744Z,4.22
2023-04-18T13:55:57.752Z,5.00
2023-04-18T13:58:24.374Z,4.70
2023-04-18T14:00:50.884Z,4.50
2023-04-18T14:03:18.842Z,4.82
2023-04-18T14:05:45.638Z,4.60
2023-04-18T14:08:12.170Z,5.35
2023-04-18T14:10:38.872Z,4.90
2023-04-18T14:13:05.465Z,4.18
2023-04-18T14:15:32.071Z,4.45
2023-04-18T14:17:58.680Z,5.15
2023-04-18T14:20:26.715Z,5.15
2023-04-18T14:22:53.402Z,4.90
2023-04-18T14:25:19.945Z,4.70
2023-04-18T14:27:47.635Z,4.88
2023-04-18T14:30:15.050Z,4.97
2023-04-18T14:32:41.633Z,5.25
2023-04-18T14:35:09.816Z,5.07
2023-04-18T14:37:37.799Z,4.95
2023-04-18T14:40:05.201Z,4.93
2023-04-18T14:42:31.762Z,5.13
2023-04-18T14:44:58.378Z,5.43
2023-04-18T14:47:24.939Z,5.25
2023-04-18T14:49:51.454Z,5.65
2023-04-18T14:52:18.061Z,5.22
2023-04-18T14:54:46.149Z,5.55
2023-04-18T14:57:13.069Z,5.75
2023-04-18T14:59:39.600Z,4.78
2023-04-18T15:02:06.832Z,4.93
2023-04-18T15:04:33.448Z,4.80
2023-04-18T15:07:00.159Z,5.00
2023-04-18T15:09:26.735Z,4.53
2023-04-18T15:11:54.672Z,4.72
2023-04-18T15:14:21.236Z,5.10
2023-04-18T15:16:48.948Z,4.57
2023-04-18T15:19:15.713Z,4.57
2023-04-18T15:21:42.351Z,5.63
2023-04-18T15:24:08.889Z,4.93
2023-04-18T15:26:35.477Z,4.82
2023-04-18T15:29:03.712Z,4.30
2023-04-18T15:31:30.563Z,4.53
2023-04-18T15:33:57.099Z,4.00
2023-04-18T15:36:23.799Z,4.50
2023-04-18T15:38:50.315Z,4.78
2023-04-18T15:41:16.827Z,4.35
2023-04-18T15:43:43.608Z,4.07
2023-04-18T15:46:11.614Z,4.30
2023-04-18T15:48:38.448Z,3.90
2023-04-18T15:51:05.063Z,3.80
2023-04-18T15:53:31.604Z,3.53
2023-04-18T15:55:58.109Z,3.85
2023-04-18T15:58:24.644Z,3.92
2023-04-18T16:00:51.195Z,3.70
2023-04-18T16:03:19.295Z,3.85
2023-04-18T16:05:45.984Z,3.70
2023-04-18T16:08:12.494Z,3.70
2023-04-18T16:10:39.011Z,3.50
2023-04-18T16:13:05.922Z,3.30
2023-04-18T16:15:33.017Z,3.53
2023-04-18T16:17:59.845Z,3.35
2023-04-18T16:20:27.805Z,3.58
2023-04-18T16:22:54.331Z,3.70
2023-04-18T16:25:20.847Z,3.70
2023-04-18T16:27:47.429Z,3.88
2023-04-18T16:30:15.299Z,3.58
2023-04-18T16:32:41.957Z,3.55
2023-04-18T16:35:09.459Z,3.13
2023-04-18T16:37:38.237Z,2.83
2023-04-18T16:40:06.439Z,2.95
2023-04-18T16:42:33.256Z,3.10
2023-04-18T16:45:00.903Z,3.35
2023-04-18T16:47:27.681Z,3.20
2023-04-18T16:49:54.844Z,3.47
2023-04-18T16:52:22.012Z,3.10
2023-04-18T16:54:52.432Z,2.95
2023-04-18T16:57:19.219Z,3.03
2023-04-18T16:59:45.790Z,3.70
2023-04-18T17:02:12.465Z,3.15
2023-04-18T17:04:39.288Z,3.00
2023-04-18T17:07:06.107Z,3.40
2023-04-18T17:09:32.662Z,3.40
2023-04-18T17:12:00.563Z,2.92
2023-04-18T17:14:27.128Z,3.25
2023-04-18T17:16:53.945Z,3.40
2023-04-18T17:19:20.508Z,3.42
2023-04-18T17:21:47.047Z,4.03
2023-04-18T17:24:13.654Z,3.10
2023-04-18T17:26:40.173Z,3.70
2023-04-18T17:29:08.449Z,3.17
2023-04-18T17:31:35.048Z,3.05
2023-04-18T17:34:01.717Z,3.20
2023-04-18T17:36:28.319Z,3.40
2023-04-18T17:38:55.162Z,3.17
2023-04-18T17:41:22.105Z,3.05
2023-04-18T17:43:48.721Z,3.25
2023-04-18T17:46:16.734Z,2.92
2023-04-18T17:48:43.312Z,2.92
2023-04-18T17:51:09.807Z,2.80
2023-04-18T17:53:36.399Z,3.00
2023-04-18T17:56:03.222Z,3.17
2023-04-18T17:58:29.813Z,3.60
2023-04-18T18:00:56.402Z,3.53
2023-04-18T18:03:24.626Z,3.50
2023-04-18T18:05:52.116Z,3.60
2023-04-18T18:08:18.863Z,3.95
2023-04-18T18:10:46.631Z,3.30
2023-04-18T18:13:13.355Z,3.60
2023-04-18T18:15:39.916Z,4.18
2023-04-18T18:18:06.510Z,3.50
2023-04-18T18:20:34.513Z,3.75
2023-04-18T18:23:01.092Z,3.40
2023-04-18T18:25:27.677Z,3.90
2023-04-18T18:27:54.213Z,3.88
2023-04-18T18:30:20.820Z,3.72
2023-04-18T18:32:47.448Z,3.88
2023-04-18T18:35:14.027Z,3.60
2023-04-18T18:37:41.953Z,4.22
2023-04-18T18:40:09.465Z,4.07
2023-04-18T18:42:36.751Z,3.72
2023-04-18T18:45:03.761Z,4.18
2023-04-18T18:47:30.595Z,4.22
2023-04-18T18:49:57.520Z,3.72
2023-04-18T18:52:24.127Z,4.35
2023-04-18T18:54:52.859Z,4.13
2023-04-18T18:57:19.391Z,3.83
2023-04-18T18:59:46.101Z,3.95
2023-04-18T19:02:12.751Z,3.63
2023-04-18T19:04:39.492Z,3.63
2023-04-18T19:07:06.260Z,3.67
2023-04-18T19:09:32.872Z,3.58
2023-04-18T19:12:00.846Z,3.65
2023-04-18T19:14:27.383Z,3.75
2023-04-18T19:16:53.908Z,3.40
2023-04-18T19:19:20.461Z,3.40
2023-04-18T19:21:47.140Z,3.70
2023-04-18T19:24:13.761Z,3.42
2023-04-18T19:26:40.889Z,3.65
2023-04-18T19:29:09.994Z,4.05
2023-04-18T19:31:36.580Z,4.03
2023-04-18T19:34:03.473Z,3.78
2023-04-18T19:36:30.038Z,4.50
2023-04-18T19:38:56.586Z,4.22
2023-04-18T19:41:24.094Z,4.13
2023-04-18T19:43:50.705Z,3.75
2023-04-18T19:46:18.671Z,3.70
2023-04-18T19:48:45.330Z,3.95
2023-04-18T19:51:11.954Z,3.88
2023-04-18T19:53:38.888Z,3.85
2023-04-18T19:56:05.464Z,4.10
2023-04-18T19:58:35.558Z,4.30
2023-04-18T20:01:02.166Z,4.03
2023-04-18T20:03:30.266Z,4.13
2023-04-18T20:05:57.004Z,4.50
2023-04-18T20:08:23.640Z,4.30
2023-04-18T20:10:50.165Z,4.35
2023-04-18T20:13:16.723Z,4.25
2023-04-18T20:15:43.421Z,4.38
2023-04-18T20:18:10.041Z,4.22
2023-04-18T20:20:37.966Z,4.32
2023-04-18T20:23:04.545Z,4.18
2023-04-18T20:25:32.763Z,4.50
2023-04-18T20:27:59.398Z,4.30
2023-04-18T20:30:26.044Z,4.45
2023-04-18T20:32:52.667Z,4.05
2023-04-18T20:35:19.288Z,4.40
2023-04-18T20:37:47.219Z,4.65
2023-04-18T20:40:13.773Z,4.80
2023-04-18T20:42:40.344Z,4.70
2023-04-18T20:45:08.154Z,4.20
2023-04-18T20:47:34.796Z,4.22
2023-04-18T20:50:01.497Z,4.63
2023-04-18T20:52:28.099Z,4.65
2023-04-18T20:54:56.005Z,4.57
2023-04-18T20:57:22.615Z,4.22
2023-04-18T20:59:49.200Z,4.70
2023-04-18T21:02:15.850Z,4.70
2023-04-18T21:04:42.625Z,4.38
2023-04-18T21:07:09.230Z,4.80
2023-04-18T21:09:36.099Z,4.95
2023-04-18T21:12:05.328Z,4.53
2023-04-18T21:14:32.014Z,4.35
2023-04-18T21:16:58.872Z,4.57
2023-04-18T21:19:25.499Z,4.55
2023-04-18T21:21:52.182Z,4.80
2023-04-18T21:24:19.028Z,4.82
2023-04-18T21:26:45.610Z,4.45
2023-04-18T21:29:13.548Z,4.35
2023-04-18T21:31:40.434Z,4.57
2023-04-18T21:34:07.033Z,4.13
2023-04-18T21:36:33.649Z,4.40
2023-04-18T21:39:00.853Z,4.72
2023-04-18T21:41:27.533Z,4.97
2023-04-18T21:43:54.149Z,4.97
2023-04-18T21:46:22.269Z,4.72
2023-04-18T21:48:48.975Z,5.07
2023-04-18T21:51:16.447Z,4.50
2023-04-18T21:53:43.335Z,4.68
2023-04-18T21:56:10.164Z,4.53
2023-04-18T21:58:36.697Z,4.22
2023-04-18T22:01:03.528Z,4.03
2023-04-18T22:03:32.715Z,3.80
2023-04-18T22:05:59.602Z,4.28
2023-04-18T22:08:26.479Z,4.55
2023-04-18T22:10:53.647Z,3.47
2023-04-18T22:13:20.250Z,4.60
2023-04-18T22:15:46.789Z,4.20
2023-04-18T22:18:13.750Z,4.32
2023-04-18T22:20:41.795Z,4.15
2023-04-18T22:23:08.449Z,4.05
2023-04-18T22:25:35.514Z,3.60
2023-04-18T22:28:02.475Z,3.92
2023-04-18T22:30:29.009Z,3.55
2023-04-18T22:32:55.604Z,3.90
2023-04-18T22:35:22.165Z,3.90
2023-04-18T22:37:50.029Z,3.83
2023-04-18T22:40:16.856Z,4.05
2023-04-18T22:42:43.484Z,3.25
2023-04-18T22:45:10.815Z,3.33
2023-04-18T22:47:37.424Z,3.35
2023-04-18T22:50:04.684Z,3.08
2023-04-18T22:52:31.312Z,3.10
2023-04-18T22:54:59.233Z,2.90
2023-04-18T22:57:25.770Z,2.88
2023-04-18T22:59:52.282Z,3.10
2023-04-18T23:02:19.055Z,2.63
2023-04-18T23:04:45.823Z,2.90
2023-04-18T23:07:12.667Z,2.75
2023-04-18T23:09:39.299Z,2.92
2023-04-18T23:12:07.247Z,2.67
2023-04-18T23:14:33.772Z,2.83
2023-04-18T23:17:00.416Z,3.40
2023-04-18T23:19:26.938Z,3.00
2023-04-18T23:21:53.486Z,3.00
2023-04-18T23:24:20.018Z,2.90
2023-04-18T23:26:46.548Z,2.75
2023-04-18T23:29:14.414Z,3.13
2023-04-18T23:31:41.062Z,3.20
2023-04-18T23:34:07.634Z,3.30
2023-04-18T23:36:34.179Z,3.20
2023-04-18T23:39:00.741Z,3.28
2023-04-18T23:41:27.247Z,3.40
2023-04-18T23:43:53.861Z,3.00
2023-04-18T23:46:21.885Z,3.38
2023-04-18T23:48:48.736Z,3.50
2023-04-18T23:51:15.277Z,3.28
2023-04-18T23:53:42.083Z,3.60
2023-04-18T23:56:08.677Z,2.88
2023-04-18T23:58:35.289Z,2.85
